Time;durP1;ratioP1;P1;durP2;ratioP2;P2;SDS_P1;SDS_P2;PMS_P1;PMS_P2;Temp;Humidity;BMP_temperature;BMP_pressure;BME280_temperature;BME280_humidity;BME280_pressure;Samples;Min_cycle;Max_cycle;Signal;HPM_P1;HPM_P2
2023/02/02 00:02:01;;;;;;;16.00;4.75;;;8.60;99.90;;;;;;5014868;28;20052;-79
2023/02/02 00:04:28;;;;;;;12.25;4.53;;;8.60;99.90;;;;;;5013069;28;20046;-78
2023/02/02 00:06:57;;;;;;;14.52;3.50;;;8.60;99.90;;;;;;5014665;28;20361;-78
2023/02/02 00:09:24;;;;;;;13.13;3.83;;;8.60;99.90;;;;;;5013501;28;20460;-78
2023/02/02 00:11:51;;;;;;;12.93;3.58;;;8.70;99.90;;;;;;4997265;28;20050;-78
2023/02/02 00:14:17;;;;;;;15.70;4.43;;;8.70;99.90;;;;;;5013117;28;20042;-77
2023/02/02 00:16:44;;;;;;;14.43;4.18;;;8.70;99.90;;;;;;5012516;28;20042;-78
2023/02/02 00:19:11;;;;;;;11.40;3.25;;;8.70;99.90;;;;;;5007869;28;20057;-77
2023/02/02 00:21:37;;;;;;;14.43;4.18;;;8.70;99.90;;;;;;5014537;28;20453;-78
2023/02/02 00:24:04;;;;;;;11.10;3.17;;;8.70;99.90;;;;;;5012993;28;20369;-78
2023/02/02 00:26:31;;;;;;;13.98;3.75;;;8.70;99.90;;;;;;5014400;28;20061;-78
2023/02/02 00:28:57;;;;;;;11.38;2.80;;;8.70;99.90;;;;;;5014545;28;20100;-78
2023/02/02 00:31:24;;;;;;;11.35;3.58;;;8.70;99.90;;;;;;5014013;28;20433;-77
2023/02/02 00:33:51;;;;;;;11.57;3.63;;;8.70;99.90;;;;;;5012904;28;20459;-77
2023/02/02 00:36:18;;;;;;;14.10;3.63;;;8.70;99.90;;;;;;5012406;28;20068;-78
2023/02/02 00:38:44;;;;;;;13.25;3.40;;;8.70;99.90;;;;;;5013284;28;20053;-78
2023/02/02 00:41:11;;;;;;;16.92;4.57;;;8.70;99.90;;;;;;5012285;28;20042;-78
2023/02/02 00:43:37;;;;;;;15.52;4.07;;;8.70;99.90;;;;;;5009033;28;20057;-78
2023/02/02 00:46:04;;;;;;;9.80;2.92;;;8.70;99.90;;;;;;5011980;28;20045;-77
2023/02/02 00:48:31;;;;;;;9.48;2.83;;;8.70;99.90;;;;;;5013181;28;20065;-79
2023/02/02 00:50:57;;;;;;;12.82;3.97;;;8.70;99.90;;;;;;5012155;28;20065;-78
2023/02/02 00:53:24;;;;;;;11.75;2.65;;;8.70;99.90;;;;;;5013157;28;20034;-78
2023/02/02 00:55:51;;;;;;;16.10;4.18;;;8.70;99.90;;;;;;5015739;28;20042;-78
2023/02/02 00:58:17;;;;;;;16.13;3.75;;;8.70;99.90;;;;;;5017715;28;20038;-78
2023/02/02 01:00:45;;;;;;;13.45;4.22;;;8.70;99.90;;;;;;5016612;28;20045;-79
2023/02/02 01:03:13;;;;;;;12.65;3.15;;;8.70;99.90;;;;;;5015592;28;20048;-78
2023/02/02 01:05:40;;;;;;;12.23;3.65;;;8.70;99.90;;;;;;5016383;28;20436;-78
2023/02/02 01:08:07;;;;;;;14.57;2.90;;;8.70;99.90;;;;;;5000465;28;20049;-78
2023/02/02 01:10:33;;;;;;;10.02;3.20;;;8.70;99.90;;;;;;5017135;28;20061;-78
2023/02/02 01:13:00;;;;;;;10.70;3.08;;;8.70;99.90;;;;;;5017535;28;20468;-78
2023/02/02 01:15:29;;;;;;;7.25;2.42;;;8.70;99.90;;;;;;5017601;28;20145;-78
2023/02/02 01:17:56;;;;;;;11.38;3.90;;;8.70;99.90;;;;;;4999289;28;20065;-78
2023/02/02 01:20:23;;;;;;;12.48;2.60;;;8.70;99.90;;;;;;5000169;28;20132;-78
2023/02/02 01:22:52;;;;;;;14.15;3.85;;;8.70;99.90;;;;;;5016232;28;20038;-78
2023/02/02 01:25:19;;;;;;;9.25;2.83;;;8.70;99.90;;;;;;5016860;28;20065;-79
2023/02/02 01:27:46;;;;;;;10.20;2.97;;;8.80;99.90;;;;;;5016002;28;20042;-78
2023/02/02 01:30:12;;;;;;;8.52;3.33;;;8.80;99.90;;;;;;5014947;28;20045;-78
2023/02/02 01:32:39;;;;;;;9.60;2.88;;;8.80;99.90;;;;;;5016202;28;20046;-78
2023/02/02 01:35:06;;;;;;;10.80;2.78;;;8.80;99.90;;;;;;5016423;28;20045;-78
2023/02/02 01:37:32;;;;;;;8.45;2.47;;;8.80;99.90;;;;;;5016017;28;20052;-78
2023/02/02 01:39:59;;;;;;;6.70;2.33;;;8.80;99.90;;;;;;5016920;28;20042;-78
2023/02/02 01:42:25;;;;;;;9.98;3.15;;;8.80;99.90;;;;;;5015796;28;20034;-78
2023/02/02 01:44:52;;;;;;;14.15;4.18;;;8.80;99.90;;;;;;5016341;28;20049;-78
2023/02/02 01:47:19;;;;;;;11.35;3.38;;;8.80;99.90;;;;;;5016984;28;20053;-78
2023/02/02 01:49:45;;;;;;;6.43;2.65;;;8.70;99.90;;;;;;5015714;28;20409;-78
2023/02/02 01:52:12;;;;;;;7.53;2.28;;;8.70;99.90;;;;;;5016705;28;20045;-78
2023/02/02 01:54:39;;;;;;;12.30;3.35;;;8.60;99.90;;;;;;4999052;28;20372;-78
2023/02/02 01:57:05;;;;;;;15.43;3.33;;;8.50;99.90;;;;;;5030831;28;20038;-78
2023/02/02 01:59:32;;;;;;;9.63;2.22;;;8.40;99.90;;;;;;5032181;28;20133;-77
2023/02/02 02:01:59;;;;;;;12.77;3.30;;;8.30;99.90;;;;;;4999357;28;20048;-78
2023/02/02 02:04:27;;;;;;;12.00;2.80;;;8.20;99.90;;;;;;5030576;28;20073;-77
2023/02/02 02:06:53;;;;;;;9.88;3.42;;;8.10;99.90;;;;;;5015743;28;20049;-78
2023/02/02 02:09:21;;;;;;;12.85;3.50;;;8.00;99.90;;;;;;4998244;28;20060;-80
2023/02/02 02:11:47;;;;;;;15.60;3.97;;;8.00;99.90;;;;;;5015347;28;20503;-79
2023/02/02 02:17:00;;;;;;;13.02;2.67;;;8.10;99.90;;;;;;5015478;28;20065;-77
2023/02/02 02:19:27;;;;;;;12.30;3.25;;;8.10;99.90;;;;;;4999101;28;20477;-77
2023/02/02 02:27:25;;;;;;;12.80;3.92;;;8.00;99.90;;;;;;5031614;28;20084;-77
2023/02/02 02:29:52;;;;;;;11.73;3.08;;;8.00;99.90;;;;;;5015036;28;20049;-77
2023/02/02 02:32:19;;;;;;;11.82;4.05;;;8.00;99.90;;;;;;5031605;28;20045;-77
2023/02/02 02:34:46;;;;;;;10.40;2.88;;;7.90;99.90;;;;;;5015333;28;20089;-77
2023/02/02 02:37:13;;;;;;;9.20;3.05;;;8.00;99.90;;;;;;5015126;28;20042;-78
2023/02/02 02:39:39;;;;;;;15.68;3.67;;;8.00;99.90;;;;;;5031493;28;20048;-78
2023/02/02 02:42:06;;;;;;;10.98;4.30;;;8.00;99.90;;;;;;5016080;28;20133;-78
2023/02/02 02:44:33;;;;;;;15.32;3.28;;;8.00;99.90;;;;;;5029805;28;20048;-77
2023/02/02 02:47:00;;;;;;;9.88;4.28;;;8.10;99.90;;;;;;5015806;28;20048;-78
2023/02/02 02:49:27;;;;;;;14.48;3.22;;;8.20;99.90;;;;;;5030033;28;20084;-78
2023/02/02 02:51:54;;;;;;;16.08;4.53;;;8.20;99.90;;;;;;5014731;28;20464;-78
2023/02/02 02:58:03;;;;;;;13.45;2.90;;;8.30;99.90;;;;;;4965039;28;20112;-78
2023/02/02 03:00:29;;;;;;;8.68;3.25;;;8.30;99.90;;;;;;4974374;28;20093;-78
2023/02/02 03:02:56;;;;;;;16.73;3.60;;;8.30;99.90;;;;;;4975475;28;20123;-77
2023/02/02 03:05:23;;;;;;;10.82;3.30;;;8.30;99.90;;;;;;4991296;28;20113;-78
2023/02/02 03:07:50;;;;;;;10.55;3.10;;;8.20;99.90;;;;;;4975358;28;20138;-77
2023/02/02 03:10:17;;;;;;;10.88;3.20;;;8.20;99.90;;;;;;4975437;28;20102;-78
2023/02/02 03:12:43;;;;;;;8.93;2.83;;;8.10;99.90;;;;;;4975358;28;20042;-78
2023/02/02 03:15:10;;;;;;;10.70;2.85;;;8.10;99.90;;;;;;4974551;28;20125;-78
2023/02/02 03:17:37;;;;;;;14.65;3.38;;;8.00;99.90;;;;;;4975435;28;20054;-78
2023/02/02 03:20:03;;;;;;;10.48;3.53;;;8.00;99.90;;;;;;4976162;28;20042;-77
2023/02/02 03:22:30;;;;;;;9.82;3.10;;;8.00;99.90;;;;;;4974248;28;20039;-78
2023/02/02 03:24:58;;;;;;;10.07;2.80;;;7.90;99.90;;;;;;4975721;28;20052;-77
2023/02/02 03:27:24;;;;;;;13.68;2.92;;;7.90;99.90;;;;;;4974022;28;20053;-77
2023/02/02 03:29:51;;;;;;;10.45;3.80;;;7.80;99.90;;;;;;4975936;28;20361;-77
2023/02/02 03:32:18;;;;;;;8.43;2.92;;;7.70;99.90;;;;;;4976012;28;20058;-77
2023/02/02 03:34:44;;;;;;;9.60;3.00;;;7.70;99.90;;;;;;4973409;28;20065;-77
2023/02/02 03:37:11;;;;;;;9.98;2.83;;;7.60;99.90;;;;;;4975030;28;20101;-77
2023/02/02 03:39:37;;;;;;;12.38;2.72;;;7.60;99.90;;;;;;4975096;28;20099;-77
2023/02/02 03:42:04;;;;;;;11.48;3.50;;;7.50;99.90;;;;;;4973736;28;20046;-77
2023/02/02 03:44:31;;;;;;;10.75;3.08;;;7.50;99.90;;;;;;4975472;28;20057;-78
2023/02/02 03:46:57;;;;;;;9.25;2.83;;;7.40;99.90;;;;;;4975847;28;20043;-77
2023/02/02 03:49:24;;;;;;;9.80;3.42;;;7.40;99.90;;;;;;4974737;28;20043;-78
2023/02/02 03:51:50;;;;;;;10.32;3.17;;;7.30;99.90;;;;;;4975652;28;20466;-79
2023/02/02 03:54:17;;;;;;;8.63;2.55;;;7.20;99.90;;;;;;4974337;28;20129;-77
2023/02/02 03:56:44;;;;;;;13.60;3.97;;;7.20;99.90;;;;;;4975433;28;20381;-77
2023/02/02 03:59:10;;;;;;;13.98;2.65;;;7.10;99.90;;;;;;4975662;28;20053;-78
2023/02/02 04:01:37;;;;;;;12.32;4.90;;;7.10;99.90;;;;;;4989850;28;20034;-77
2023/02/02 04:04:04;;;;;;;8.10;2.78;;;7.00;99.90;;;;;;4975703;28;20043;-77
2023/02/02 04:06:30;;;;;;;11.10;3.95;;;7.00;99.90;;;;;;4975278;28;20050;-77
2023/02/02 04:08:57;;;;;;;17.00;3.78;;;7.00;99.90;;;;;;4973872;28;20054;-78
2023/02/02 04:11:23;;;;;;;10.50;2.50;;;7.00;99.90;;;;;;4974643;28;20054;-78
2023/02/02 04:13:50;;;;;;;9.88;2.95;;;7.00;99.90;;;;;;4974628;28;20553;-77
2023/02/02 04:16:17;;;;;;;8.00;2.45;;;7.00;99.90;;;;;;4975128;28;20050;-77
2023/02/02 04:18:43;;;;;;;9.27;3.08;;;6.90;99.90;;;;;;4990746;28;20102;-77
2023/02/02 04:21:10;;;;;;;7.53;2.63;;;6.90;99.90;;;;;;4974703;28;20119;-78
2023/02/02 04:23:36;;;;;;;12.18;2.90;;;6.90;99.90;;;;;;4975522;28;20043;-77
2023/02/02 04:26:03;;;;;;;15.25;4.47;;;7.00;99.90;;;;;;4974890;28;20039;-77
2023/02/02 04:28:30;;;;;;;8.27;2.58;;;7.00;99.90;;;;;;4989564;28;20046;-78
2023/02/02 04:30:56;;;;;;;10.52;2.58;;;6.90;99.90;;;;;;4977868;28;20469;-77
2023/02/02 04:33:23;;;;;;;11.90;3.15;;;6.90;99.90;;;;;;4994479;28;20105;-78
2023/02/02 04:35:50;;;;;;;10.05;2.85;;;6.90;99.90;;;;;;4977524;28;20390;-77
2023/02/02 04:38:16;;;;;;;8.45;2.50;;;6.90;99.90;;;;;;4979223;28;20465;-77
2023/02/02 04:40:43;;;;;;;9.60;2.70;;;7.00;99.90;;;;;;4977859;28;20131;-78
2023/02/02 04:43:10;;;;;;;12.73;3.15;;;7.00;99.90;;;;;;4979042;28;20043;-77
2023/02/02 04:45:36;;;;;;;9.65;2.40;;;6.90;99.90;;;;;;4978635;28;20058;-77
2023/02/02 04:48:03;;;;;;;9.32;3.35;;;6.90;99.90;;;;;;4977897;28;20129;-77
2023/02/02 04:50:29;;;;;;;20.40;5.93;;;6.90;99.90;;;;;;4978877;28;20047;-78
2023/02/02 04:52:56;;;;;;;15.07;4.47;;;6.90;99.90;;;;;;4978716;28;20058;-78
2023/02/02 04:55:23;;;;;;;13.70;3.10;;;6.80;99.90;;;;;;4992372;28;20058;-78
2023/02/02 04:57:50;;;;;;;10.93;4.45;;;6.80;99.90;;;;;;4978879;28;20082;-77
2023/02/02 05:00:16;;;;;;;13.25;3.40;;;6.80;99.90;;;;;;4977945;28;20049;-77
2023/02/02 05:02:43;;;;;;;9.75;2.85;;;6.80;99.90;;;;;;4977592;28;20093;-78
2023/02/02 05:05:10;;;;;;;9.10;3.17;;;6.80;99.90;;;;;;4978266;28;20113;-78
2023/02/02 05:07:36;;;;;;;15.10;2.80;;;6.70;99.90;;;;;;4977469;28;20385;-78
2023/02/02 05:10:03;;;;;;;12.60;4.78;;;6.60;99.90;;;;;;4977695;28;20461;-77
2023/02/02 05:12:30;;;;;;;12.52;4.03;;;6.60;99.90;;;;;;4978470;28;20058;-77
2023/02/02 05:14:59;;;;;;;8.23;2.78;;;6.60;99.90;;;;;;4976100;28;20039;-77
2023/02/02 05:17:26;;;;;;;12.00;3.03;;;6.60;99.90;;;;;;4961547;28;20047;-77
2023/02/02 05:19:53;;;;;;;12.02;3.28;;;6.60;99.90;;;;;;4978395;28;20047;-78
2023/02/02 05:22:19;;;;;;;11.40;4.43;;;6.60;99.90;;;;;;4992431;28;20061;-78
2023/02/02 05:24:46;;;;;;;8.23;2.50;;;6.60;99.90;;;;;;4993047;28;20042;-77
2023/02/02 05:27:13;;;;;;;13.38;2.78;;;6.60;99.90;;;;;;4976299;28;20058;-78
2023/02/02 05:29:39;;;;;;;9.98;2.55;;;6.60;99.90;;;;;;4993424;28;20393;-77
2023/02/02 05:32:06;;;;;;;11.68;4.78;;;6.60;99.90;;;;;;4978131;28;20477;-77
2023/02/02 05:34:33;;;;;;;8.13;2.55;;;6.60;99.90;;;;;;4976706;28;20055;-77
2023/02/02 05:37:00;;;;;;;6.82;2.90;;;6.60;99.90;;;;;;4976947;28;20043;-77
2023/02/02 05:39:26;;;;;;;8.40;2.45;;;6.60;99.90;;;;;;4978199;28;20050;-78
2023/02/02 05:41:53;;;;;;;9.45;3.17;;;6.60;99.90;;;;;;4990863;28;20077;-77
2023/02/02 05:44:19;;;;;;;11.35;2.47;;;6.60;99.90;;;;;;4977562;28;20089;-77
2023/02/02 05:46:46;;;;;;;9.65;2.58;;;6.60;99.90;;;;;;4978056;28;20390;-77
2023/02/02 05:49:13;;;;;;;10.93;2.58;;;6.50;99.90;;;;;;4976669;28;20077;-77
2023/02/02 05:51:39;;;;;;;9.50;2.72;;;6.50;99.90;;;;;;4976911;28;20117;-77
2023/02/02 05:54:06;;;;;;;9.35;2.47;;;6.60;99.90;;;;;;4975448;28;20043;-77
2023/02/02 05:56:32;;;;;;;10.65;2.20;;;6.60;99.90;;;;;;4992831;28;20496;-77
2023/02/02 05:58:59;;;;;;;11.52;2.85;;;6.60;99.90;;;;;;4977811;28;20047;-77
2023/02/02 06:01:26;;;;;;;7.15;2.83;;;6.60;99.90;;;;;;4975775;28;20053;-77
2023/02/02 06:03:52;;;;;;;8.20;2.53;;;6.60;99.90;;;;;;4977490;28;20433;-77
2023/02/02 06:06:19;;;;;;;7.72;3.10;;;6.60;99.90;;;;;;4977116;28;20435;-77
2023/02/02 06:08:46;;;;;;;6.55;2.78;;;6.60;99.90;;;;;;4975564;28;20105;-77
2023/02/02 06:11:12;;;;;;;8.13;2.67;;;6.60;99.90;;;;;;4977607;28;20050;-78
2023/02/02 06:13:39;;;;;;;9.38;3.67;;;6.60;99.90;;;;;;4977334;28;20458;-77
2023/02/02 06:16:05;;;;;;;10.15;2.92;;;6.60;99.90;;;;;;4975780;28;20061;-77
2023/02/02 06:18:32;;;;;;;11.48;3.15;;;6.60;99.90;;;;;;4960220;28;20113;-77
2023/02/02 06:20:59;;;;;;;7.40;2.88;;;6.60;99.90;;;;;;4991655;28;20133;-77
2023/02/02 06:23:26;;;;;;;10.98;2.85;;;6.50;99.90;;;;;;4976474;28;20468;-77
2023/02/02 06:25:52;;;;;;;9.23;2.72;;;6.50;99.90;;;;;;4975925;28;20051;-77
2023/02/02 06:28:19;;;;;;;9.77;2.80;;;6.50;99.90;;;;;;4991265;28;20038;-77
2023/02/02 06:30:45;;;;;;;9.55;3.53;;;6.50;99.90;;;;;;4977219;28;20042;-77
2023/02/02 06:33:12;;;;;;;8.85;3.03;;;6.40;99.90;;;;;;4976856;28;20038;-77
2023/02/02 06:35:39;;;;;;;9.18;2.80;;;6.50;99.90;;;;;;4974504;28;20066;-77
2023/02/02 06:38:05;;;;;;;9.38;2.58;;;6.50;99.90;;;;;;4977092;28;20047;-77
2023/02/02 06:40:32;;;;;;;8.07;2.75;;;6.50;99.90;;;;;;4975896;28;20030;-76
2023/02/02 06:42:59;;;;;;;8.00;2.25;;;6.50;99.90;;;;;;4976951;28;20373;-77
2023/02/02 06:45:25;;;;;;;11.27;3.88;;;6.50;99.90;;;;;;4976308;28;20043;-77
2023/02/02 06:47:52;;;;;;;15.43;3.90;;;6.50;99.90;;;;;;4975684;28;20039;-77
2023/02/02 06:50:19;;;;;;;6.47;2.88;;;6.60;99.90;;;;;;4975918;28;20053;-78
2023/02/02 06:52:45;;;;;;;8.45;1.90;;;6.60;99.90;;;;;;4976186;28;20391;-77
2023/02/02 06:55:12;;;;;;;9.98;2.95;;;6.50;99.90;;;;;;4975166;28;20054;-77
2023/02/02 06:57:39;;;;;;;6.80;1.88;;;6.50;99.90;;;;;;4976553;28;20047;-77
2023/02/02 07:00:05;;;;;;;4.50;1.77;;;6.50;99.90;;;;;;4991711;28;20043;-77
2023/02/02 07:02:32;;;;;;;8.55;2.20;;;6.50;99.90;;;;;;4975575;28;20051;-77
2023/02/02 07:04:59;;;;;;;8.13;2.70;;;6.50;99.90;;;;;;4976146;28;20035;-77
2023/02/02 07:07:25;;;;;;;8.15;2.72;;;6.50;99.90;;;;;;4975425;28;20466;-76
2023/02/02 07:09:52;;;;;;;10.65;2.50;;;6.60;99.90;;;;;;4976369;28;20137;-77
2023/02/02 07:12:25;;;;;;;9.60;3.38;;;6.50;99.90;;;;;;4975572;28;20047;-76
2023/02/02 07:14:52;;;;;;;8.80;2.33;;;6.50;99.90;;;;;;4974701;28;20069;-76
2023/02/02 07:17:18;;;;;;;6.25;2.20;;;6.50;99.90;;;;;;4959258;28;20051;-77
2023/02/02 07:19:45;;;;;;;5.57;2.10;;;6.40;99.90;;;;;;4976217;28;20034;-76
2023/02/02 07:22:12;;;;;;;10.07;2.65;;;6.30;99.90;;;;;;4974226;28;20070;-76
2023/02/02 07:24:38;;;;;;;6.78;1.90;;;6.30;99.90;;;;;;4975777;28;20039;-76
2023/02/02 07:27:05;;;;;;;10.25;2.00;;;6.40;99.90;;;;;;4976359;28;20362;-77
2023/02/02 07:29:31;;;;;;;6.75;2.55;;;6.40;99.90;;;;;;4974951;28;20043;-76
2023/02/02 07:31:58;;;;;;;5.38;2.10;;;6.40;99.90;;;;;;4976008;28;20133;-77
2023/02/02 07:34:25;;;;;;;4.18;2.10;;;6.30;99.90;;;;;;4974606;28;20365;-77
2023/02/02 07:36:51;;;;;;;5.50;2.10;;;6.30;99.90;;;;;;4975032;28;20051;-77
2023/02/02 07:39:18;;;;;;;11.45;3.63;;;6.40;99.90;;;;;;4959027;28;20385;-76
2023/02/02 07:41:45;;;;;;;9.82;2.58;;;6.40;99.90;;;;;;4974720;28;20049;-77
2023/02/02 07:44:27;;;;;;;9.25;2.47;;;6.50;99.90;;;;;;4960630;28;20045;-76
2023/02/02 07:46:54;;;;;;;8.23;2.65;;;6.60;99.90;;;;;;4974940;28;20046;-77
2023/02/02 07:49:20;;;;;;;8.73;2.53;;;6.60;99.90;;;;;;4958131;28;20042;-77
2023/02/02 07:51:48;;;;;;;4.80;2.58;;;6.70;99.90;;;;;;4975699;28;20042;-77
2023/02/02 07:54:14;;;;;;;9.93;3.63;;;6.70;99.90;;;;;;4973440;28;20480;-77
2023/02/02 07:56:41;;;;;;;11.70;3.17;;;6.80;99.90;;;;;;4975484;28;20061;-77
2023/02/02 07:59:08;;;;;;;10.73;2.47;;;6.80;99.90;;;;;;4974888;28;20117;-76
2023/02/02 08:01:34;;;;;;;11.30;2.63;;;6.80;99.90;;;;;;4957689;28;20351;-76
2023/02/02 08:04:02;;;;;;;10.57;3.85;;;6.90;99.90;;;;;;4977525;28;20043;-77
2023/02/02 08:06:30;;;;;;;9.70;2.75;;;6.90;99.90;;;;;;4979553;28;20086;-78
2023/02/02 08:08:56;;;;;;;6.63;2.28;;;6.90;99.90;;;;;;4993671;28;20381;-78
2023/02/02 08:11:23;;;;;;;8.30;2.95;;;6.90;99.90;;;;;;4979764;28;20109;-77
2023/02/02 08:13:50;;;;;;;10.23;2.60;;;6.90;99.90;;;;;;4993527;28;20057;-77
2023/02/02 08:16:16;;;;;;;8.73;2.72;;;7.00;99.90;;;;;;4979555;28;20042;-77
2023/02/02 08:18:43;;;;;;;9.57;2.85;;;7.10;99.90;;;;;;4987873;28;20043;-77
2023/02/02 08:21:10;;;;;;;8.48;2.92;;;7.20;99.90;;;;;;4998105;28;20050;-78
2023/02/02 08:23:36;;;;;;;8.32;2.75;;;7.30;99.90;;;;;;4980171;28;20137;-78
2023/02/02 08:26:03;;;;;;;6.70;2.38;;;7.30;99.90;;;;;;4979067;28;20508;-78
2023/02/02 08:28:30;;;;;;;8.90;2.80;;;7.40;99.90;;;;;;4993872;28;20146;-78
2023/02/02 08:30:56;;;;;;;14.18;3.95;;;7.50;99.90;;;;;;4978383;28;20428;-78
2023/02/02 08:33:23;;;;;;;9.68;3.22;;;7.60;99.90;;;;;;4979218;28;20051;-78
2023/02/02 08:35:50;;;;;;;8.50;2.33;;;7.60;99.90;;;;;;4993112;28;20053;-78
2023/02/02 08:38:17;;;;;;;5.60;2.17;;;7.70;99.90;;;;;;5008773;28;20043;-78
2023/02/02 08:40:43;;;;;;;7.68;3.00;;;7.80;99.90;;;;;;5013226;28;20061;-78
2023/02/02 08:43:10;;;;;;;8.38;2.10;;;7.80;99.90;;;;;;4982548;28;20049;-78
2023/02/02 08:45:42;;;;;;;5.82;2.33;;;7.90;99.90;;;;;;4978905;28;20038;-79
2023/02/02 08:48:28;;;;;;;6.88;2.35;;;8.00;99.90;;;;;;4990860;28;20434;-78
2023/02/02 08:50:55;;;;;;;8.55;2.50;;;8.00;99.90;;;;;;4978068;28;20086;-78
2023/02/02 08:53:22;;;;;;;6.20;1.85;;;8.00;99.90;;;;;;4978389;28;20150;-79
2023/02/02 08:55:50;;;;;;;6.38;2.28;;;8.10;99.90;;;;;;4977295;28;20047;-78
2023/02/02 08:58:16;;;;;;;14.43;2.95;;;8.20;99.90;;;;;;4959753;28;20039;-78
2023/02/02 09:00:43;;;;;;;6.72;2.20;;;8.30;99.90;;;;;;4958871;29;20069;-79
2023/02/02 09:03:10;;;;;;;7.60;2.15;;;8.30;99.90;;;;;;4961286;28;20481;-78
2023/02/02 09:05:37;;;;;;;9.55;2.28;;;8.40;99.90;;;;;;4977703;28;20043;-78
2023/02/02 09:08:04;;;;;;;8.00;3.55;;;8.50;99.90;;;;;;4993386;28;20133;-78
2023/02/02 09:10:31;;;;;;;6.88;2.22;;;8.50;99.90;;;;;;4970608;28;20043;-80
2023/02/02 09:12:57;;;;;;;5.30;1.80;;;8.50;99.90;;;;;;4974316;28;20058;-79
2023/02/02 09:15:25;;;;;;;6.38;2.47;;;8.60;99.90;;;;;;4972839;28;20042;-80
2023/02/02 09:17:52;;;;;;;6.65;2.10;;;8.60;99.90;;;;;;4974110;28;20051;-79
2023/02/02 09:20:18;;;;;;;5.97;2.47;;;8.60;99.90;;;;;;4974292;28;20054;-79
2023/02/02 09:22:46;;;;;;;8.55;2.42;;;8.60;99.90;;;;;;4973333;28;20043;-78
2023/02/02 09:25:12;;;;;;;5.20;2.13;;;8.70;99.90;;;;;;4973920;28;20043;-80
2023/02/02 09:27:40;;;;;;;6.93;2.15;;;8.70;99.90;;;;;;4973345;28;20047;-77
2023/02/02 09:30:06;;;;;;;9.50;2.78;;;8.70;99.90;;;;;;4975871;28;20476;-77
2023/02/02 09:32:33;;;;;;;6.32;1.80;;;8.80;99.90;;;;;;4978339;28;20133;-77
2023/02/02 09:35:01;;;;;;;5.00;2.78;;;8.80;99.90;;;;;;4977030;28;20067;-77
2023/02/02 09:37:28;;;;;;;6.13;3.15;;;8.90;99.90;;;;;;4978164;28;20047;-77
2023/02/02 09:39:54;;;;;;;5.32;2.22;;;8.90;99.90;;;;;;4977945;28;20039;-78
2023/02/02 09:42:21;;;;;;;5.72;1.92;;;9.00;99.90;;;;;;4977118;28;20432;-78
2023/02/02 09:44:49;;;;;;;8.52;2.63;;;9.00;99.90;;;;;;4977692;28;20046;-78
2023/02/02 09:47:16;;;;;;;5.93;1.67;;;9.10;99.90;;;;;;4976969;28;20042;-78
2023/02/02 09:49:43;;;;;;;5.15;2.55;;;9.10;99.90;;;;;;4993469;28;20043;-77
2023/02/02 09:52:09;;;;;;;4.53;1.83;;;9.20;99.90;;;;;;4965322;28;20078;-77
2023/02/02 09:54:38;;;;;;;5.57;1.90;;;9.20;99.90;;;;;;4957559;29;20066;-78
2023/02/02 09:57:05;;;;;;;9.10;1.95;;;9.30;99.90;;;;;;4967455;28;20055;-78
2023/02/02 09:59:32;;;;;;;4.93;1.98;;;9.40;99.90;;;;;;4976977;28;20045;-78
2023/02/02 10:01:58;;;;;;;3.95;1.73;;;9.50;99.90;;;;;;4959937;28;20359;-78
2023/02/02 10:04:26;;;;;;;10.75;3.95;;;9.60;99.90;;;;;;4977705;28;20107;-78
2023/02/02 10:06:53;;;;;;;5.28;1.50;;;9.70;99.90;;;;;;4977958;28;20054;-77
2023/02/02 10:09:19;;;;;;;6.50;1.98;;;9.80;99.90;;;;;;4976810;28;20045;-76
2023/02/02 10:11:46;;;;;;;9.07;2.35;;;9.90;99.90;;;;;;4977865;28;20046;-77
2023/02/02 10:14:13;;;;;;;6.75;2.55;;;9.90;99.90;;;;;;4991700;28;20058;-77
2023/02/02 10:16:40;;;;;;;4.57;1.75;;;10.00;99.90;;;;;;4972605;28;20039;-77
2023/02/02 10:19:06;;;;;;;4.60;2.20;;;10.10;99.90;;;;;;4974991;28;20049;-77
2023/02/02 10:21:33;;;;;;;6.78;2.20;;;10.10;99.90;;;;;;4976615;28;20381;-77
2023/02/02 10:23:59;;;;;;;3.00;1.67;;;10.20;99.90;;;;;;4992137;28;20039;-77
2023/02/02 10:26:28;;;;;;;3.65;1.58;;;10.30;99.90;;;;;;4975782;28;20464;-77
2023/02/02 10:28:54;;;;;;;4.40;2.03;;;10.40;99.90;;;;;;4975575;28;20066;-78
2023/02/02 10:31:21;;;;;;;3.80;1.80;;;10.40;99.90;;;;;;4976463;28;20481;-78
2023/02/02 10:33:47;;;;;;;8.80;1.77;;;10.60;99.90;;;;;;4976416;28;20042;-78
2023/02/02 10:36:14;;;;;;;4.38;1.55;;;10.90;99.90;;;;;;4992197;28;20368;-78
2023/02/02 10:38:41;;;;;;;3.30;1.30;;;11.20;99.90;;;;;;4991572;28;20053;-78
2023/02/02 10:41:08;;;;;;;4.70;2.63;;;11.40;99.90;;;;;;4975636;28;20049;-78
2023/02/02 10:43:47;;;;;;;5.93;2.47;;;11.50;99.90;;;;;;4991714;28;20046;-79
2023/02/02 10:46:13;;;;;;;3.45;1.70;;;11.50;99.90;;;;;;4975271;28;20485;-77
2023/02/02 10:48:40;;;;;;;3.53;2.00;;;11.40;99.90;;;;;;4990729;28;20046;-78
2023/02/02 10:51:07;;;;;;;6.43;1.92;;;11.30;99.90;;;;;;4991809;28;20062;-77
2023/02/02 10:53:33;;;;;;;3.92;1.50;;;11.70;99.90;;;;;;4974626;28;20043;-78
2023/02/02 10:56:00;;;;;;;2.75;1.30;;;12.00;99.90;;;;;;4975130;28;20050;-78
2023/02/02 10:58:27;;;;;;;4.70;1.92;;;11.90;99.90;;;;;;4991617;28;20054;-78
2023/02/02 11:00:53;;;;;;;3.53;1.40;;;11.80;99.90;;;;;;4974977;28;20050;-79
2023/02/02 11:03:20;;;;;;;4.70;1.83;;;11.90;99.90;;;;;;4976569;28;20042;-78
2023/02/02 11:08:32;;;;;;;4.63;1.98;;;11.80;99.90;;;;;;4974870;28;20377;-78
2023/02/02 11:10:58;;;;;;;5.13;1.75;;;11.50;99.90;;;;;;4976268;28;20053;-78
2023/02/02 11:13:25;;;;;;;4.93;1.90;;;11.30;99.90;;;;;;4991455;28;20057;-78
2023/02/02 11:15:52;;;;;;;6.25;2.13;;;11.50;99.90;;;;;;4973307;28;20366;-78
2023/02/02 11:18:18;;;;;;;3.40;1.80;;;12.00;99.90;;;;;;4975103;28;20046;-78
2023/02/02 11:20:45;;;;;;;3.42;2.25;;;12.40;99.90;;;;;;4973945;28;20050;-79
2023/02/02 11:23:12;;;;;;;3.67;1.88;;;12.50;99.90;;;;;;4974810;28;20054;-78
2023/02/02 11:25:38;;;;;;;3.55;1.58;;;12.60;99.90;;;;;;4974716;28;20417;-78
2023/02/02 11:28:05;;;;;;;4.05;1.85;;;12.90;99.90;;;;;;4975130;28;20109;-78
2023/02/02 11:30:32;;;;;;;3.03;1.30;;;12.90;99.90;;;;;;4956274;28;20050;-79
2023/02/02 11:32:59;;;;;;;5.30;1.60;;;12.90;99.90;;;;;;4991020;28;20530;-78
2023/02/02 11:35:25;;;;;;;5.47;1.90;;;12.60;99.90;;;;;;4989436;28;20054;-78
2023/02/02 11:37:52;;;;;;;5.50;1.73;;;12.50;99.90;;;;;;4974061;28;20065;-78
2023/02/02 11:40:19;;;;;;;2.75;1.55;;;12.60;99.90;;;;;;4990677;28;20043;-78
2023/02/02 11:42:46;;;;;;;2.83;1.20;;;12.90;99.90;;;;;;4960095;28;20393;-78
2023/02/02 11:45:27;;;;;;;4.82;1.70;;;12.90;99.90;;;;;;4970837;28;20157;-78
2023/02/02 11:47:54;;;;;;;4.53;1.60;;;12.50;99.90;;;;;;4989693;28;20066;-78
2023/02/02 11:50:20;;;;;;;4.00;1.40;;;12.20;99.90;;;;;;4975634;28;20046;-78
2023/02/02 11:52:47;;;;;;;5.13;2.13;;;12.10;99.90;;;;;;4990791;28;20053;-78
2023/02/02 11:55:14;;;;;;;4.70;1.73;;;12.00;99.90;;;;;;4990200;28;20042;-78
2023/02/02 11:57:41;;;;;;;6.85;1.90;;;12.00;99.90;;;;;;4975430;28;20050;-78
2023/02/02 12:00:08;;;;;;;7.20;2.53;;;12.00;99.90;;;;;;4975472;28;20109;-78
2023/02/02 12:02:34;;;;;;;3.47;1.38;;;12.10;99.90;;;;;;4971840;28;20042;-79
2023/02/02 12:05:01;;;;;;;3.63;1.73;;;12.40;99.90;;;;;;4975777;28;20448;-78
2023/02/02 12:07:28;;;;;;;5.70;1.70;;;12.30;99.90;;;;;;4973590;28;20153;-78
2023/02/02 12:09:54;;;;;;;8.38;1.90;;;12.00;99.90;;;;;;4974594;28;20050;-78
2023/02/02 12:12:21;;;;;;;3.83;1.65;;;11.90;99.90;;;;;;4975729;28;20039;-77
2023/02/02 12:14:48;;;;;;;5.70;1.88;;;11.70;99.90;;;;;;4974648;28;20051;-78
2023/02/02 12:17:15;;;;;;;7.70;2.92;;;11.70;99.90;;;;;;4975585;28;20053;-78
2023/02/02 12:19:41;;;;;;;5.13;2.80;;;11.60;99.90;;;;;;4974506;28;20137;-77
2023/02/02 12:22:08;;;;;;;4.78;1.65;;;11.60;99.90;;;;;;4974940;28;20859;-77
2023/02/02 12:24:38;;;;;;;4.57;1.60;;;11.60;99.90;;;;;;4990448;28;20039;-78
2023/02/02 12:27:04;;;;;;;8.13;2.28;;;11.50;99.90;;;;;;4974660;28;20057;-78
2023/02/02 12:29:31;;;;;;;4.65;1.70;;;11.50;99.90;;;;;;4957374;28;20105;-77
2023/02/02 12:31:58;;;;;;;6.75;1.90;;;11.40;99.90;;;;;;4975573;28;20462;-78
2023/02/02 12:34:26;;;;;;;5.78;2.17;;;11.40;99.90;;;;;;4973751;28;20054;-78
2023/02/02 12:36:52;;;;;;;5.50;2.20;;;11.30;99.90;;;;;;4975282;28;20373;-78
2023/02/02 12:39:19;;;;;;;4.32;2.05;;;11.30;99.90;;;;;;4974364;28;20052;-78
2023/02/02 12:41:46;;;;;;;5.95;2.40;;;11.30;99.90;;;;;;4974678;28;20042;-78
2023/02/02 12:44:12;;;;;;;7.65;2.20;;;11.40;99.90;;;;;;4975252;28;20050;-77
2023/02/02 12:46:39;;;;;;;5.18;1.70;;;11.40;99.90;;;;;;4974900;28;20481;-78
2023/02/02 12:49:06;;;;;;;9.57;2.10;;;11.40;99.90;;;;;;4974524;28;20070;-77
2023/02/02 12:51:34;;;;;;;8.00;2.47;;;11.40;99.90;;;;;;4977809;28;20432;-78
2023/02/02 12:54:00;;;;;;;5.13;2.05;;;11.50;99.90;;;;;;4961244;28;20042;-77
2023/02/02 12:56:47;;;;;;;5.05;1.73;;;11.60;99.90;;;;;;4978837;28;20485;-78
2023/02/02 12:59:14;;;;;;;6.47;2.22;;;11.60;99.90;;;;;;4977529;28;20046;-78
2023/02/02 13:01:41;;;;;;;3.92;1.33;;;11.60;99.90;;;;;;4977162;28;20122;-79
2023/02/02 13:04:08;;;;;;;5.88;1.70;;;11.60;99.90;;;;;;4978774;28;20105;-81